Fillmore, Utah
Current Conditions -  °F | °C
As of 10:15 AM on Friday 24 Oct 2014 (Local Time) from KDTA Reporting Station
Clear Clear  
Wind Chill: 63°   Ceiling: Unl
Heat Index: 63°   Visibility: 10mi
Dew Point: 30°   Wind: 12mph
Humidity: 29%   Direction: 170°S
Pressure: 30.23"   Gusts: 16mph
Location:  38.97°N, 112.32°W
Report Text: KDTA 241615Z AUTO 17010G14KT 10SM CLR 17/M01 A3023 RMK AO1 T01731012
Loading
Personal Weather Stations






























Interactive Weather Map
Tropical Storm Tracking
New forecast layout! Learn more

10-Day Weather Forecast

Advertisements
Track Severe Weather on mobile